Tiempo atmosférico en la estación meteorológica de Escorca, Lluc, Illes Balears (490 m.)



Fecha
DESCASC
Temp. máxima en grados centígrados (hora)
DESCASC
Temp. mínima en grados centígrados (hora)
DESCASC
Temp. media en grados centígrados
DESCASC
Racha de viento máxima en m/sg (hora)
DESCASC
Velocidad máxima media en intervalos de 10 minutos(hora)
DESCASC
Precipitaciones diarias en mm
DESCASC
Precipitaciones de 00:00 a 06:00 en mm
DESCASC
Precipitaciones de 06:00 a 12:00 en mm
DESCASC
Precipitaciones de 12:00 a 18:00 en mm
DESCASC
Precipitaciones de 18:00 a 24:00 en mm
DESCASC
20-10-2019 22.4 (12:40) 13.6 (21:20) 18 11.39 (01:10) 3.89 (00:40) 1.5 0 0 0 1.5
19-10-2019 23.6 (12:10) 15.6 (02:50) 19.6 10.83 (13:20) 3.89 (13:40) 0 0 0 0 0
18-10-2019 22.2 (15:40) 8.4 (07:40) 15.3 9.44 (22:20) 4.72 (22:20) 0 0 0 0 0
17-10-2019 21.7 (12:30) 7.4 (00:00) 14.6 7.22 (11:00) 2.5 (11:00) 0 0 0 0 0
16-10-2019 20.6 (12:20) 6.4 (00:00) 13.5 6.94 (12:50) 2.78 (13:30) 0 0 0 0 0
15-10-2019 18.7 (02:00) 8.4 (00:00) 13.6 9.72 (03:50) 3.89 (04:00) 2.7 0.3 2.4 0 0
14-10-2019 27.1 (13:10) 11.4 (00:00) 19.3 10 (12:00) 3.61 (12:10) 1.1 0 0 0.4 0.7
13-10-2019 24.2 (14:30) 15.8 (00:00) 20 7.78 (11:40) 3.06 (10:50) 0 0 0 0 0
12-10-2019 23 (15:20) 15.9 (00:00) 19.4 8.06 (20:30) 3.06 (22:40) 0 0 0 0 0
11-10-2019 22.9 (13:40) 12.2 (00:00) 17.5 8.06 (22:10) 3.33 (23:50) 0 0 0 0 0
10-10-2019 18.8 (15:20) 15.3 (00:00) 17 5.83 (16:30) 2.22 (16:40) 0 0 0 0 0
09-10-2019 23.2 (12:10) 10.6 (00:00) 16.9 5.56 (16:10) 2.22 (14:50) 0 0 0 0 0
08-10-2019 22.2 (13:10) 8.1 (00:00) 15.2 3.89 (13:50) 1.39 (11:00) 0 0 0 0 0
07-10-2019 19.6 (14:20) 10.9 (00:00) 15.3 9.72 (06:40) 2.22 (04:20) 0.5 0 0.5 0 0
06-10-2019 22.4 (12:00) 11.3 (00:00) 16.8 5 (16:50) 2.22 (16:50) 0 0 0 0 0
05-10-2019 21.7 (13:20) 9.9 (00:00) 15.8 5.28 (11:40) 2.22 (12:10) 0 0 0 0 0
04-10-2019 22.5 (15:20) 8.5 (00:00) 15.5 4.72 (16:40) 1.67 (16:10) 0 0 0 0 0
03-10-2019 21.7 (12:40) 11.4 (00:00) 16.6 6.67 (15:20) 1.67 (16:50) 0.8 0 0.8 0 0
02-10-2019 19 (03:40) 11.8 (00:00) 15.4 6.39 (04:40) 2.22 (10:30) 7.8 0 0.7 7.1 0
01-10-2019 25.7 (15:00) 11.3 (00:00) 18.5 5 (12:10) 1.67 (12:00) 0 0 0 0 0
30-09-2019 25.6 (15:40) 10 (00:00) 17.8 5.56 (15:10) 1.94 (15:10) 0 0 0 0 0
29-09-2019 26.4 (14:00) 11.3 (00:00) 18.8 3.61 (12:50) 1.39 (12:40) 0 0 0 0 0
28-09-2019 24.8 (12:40) 12.7 (00:00) 18.7 5 (12:40) 1.67 (13:20) 0 0 0 0 0
27-09-2019 25.3 (12:20) 12.3 (00:00) 18.8 4.72 (12:40) 1.67 (15:50) 0 0 0 0 0
26-09-2019 24.4 (13:20) 11.9 (00:00) 18.1 4.17 (12:50) 1.11 (13:20) 0 0 0 0 0
25-09-2019 24.3 (12:00) 11.2 (00:00) 17.7 7.5 (15:40) 2.22 (14:10) 0 0 0 0 0
24-09-2019 26.9 (13:20) 11.3 (00:00) 19.1 3.89 (15:40) 0.83 (12:30) 0 0 0 0 0
23-09-2019 22.1 (12:00) 14.2 (00:00) 18.2 5 (12:50) 2.22 (11:00) 0 0 0 0 0
22-09-2019 25.6 (14:10) 16 (00:00) 20.8 4.17 (14:10) 0.83 (14:00) 0 0 0 0 0

Gráficas

Temp. máximas Temp. mínimas Temp. medias Precipitaciones Rachas de viento máximas Velocidades máximas media en intervalos de 10 minutos

Datos horarios

Fecha y hora oficial Temperatura (ºC) Velocidad del viento (km/h) Dirección del viento Racha (km/h) Dirección de racha Precipitación (mm) Presión (hPa) Tendencia (hPa) Humedad (%)
2019-10-21 23:00:00 12 0 Calma 11 Sudeste 5.7 -- -- 90
2019-10-21 22:00:00 11.6 0 Calma 12 Sur 1.2 -- -- 90
2019-10-21 21:00:00 11.6 0 Calma 10 Este 2 -- -- 89
2019-10-21 20:00:00 11.5 0 Calma 9 Oeste 0.5 -- -- 89
2019-10-21 19:00:00 12.2 0 Calma 6 Sudoeste 1.7 -- -- 89
2019-10-21 18:00:00 12.8 0 Calma 6 Este 0.7 -- -- 89
2019-10-21 17:00:00 13 0 Calma -- -- 0.1 -- -- 89
2019-10-21 16:00:00 13 0 Calma 5 Sur 0 -- -- 89
2019-10-21 15:00:00 12.9 0 Calma 6 Sudeste 0.3 -- -- 89
2019-10-21 14:00:00 12.9 0 Calma 23 Sudoeste 0.5 -- -- 88
2019-10-21 13:00:00 11.9 0 Calma 35 Sudoeste 1.5 -- -- 86
2019-10-21 12:00:00 12.3 8 Sudoeste 26 Sudoeste 0.6 -- -- 84
2019-10-21 11:00:00 12.1 3 Sudoeste 18 Sudoeste 1.8 -- -- 90
2019-10-21 10:00:00 12.3 3 Sudoeste 17 Sur 0.1 -- -- 90
2019-10-21 09:00:00 11.9 5 Sur 17 Sudeste 0.3 -- -- 90
2019-10-21 08:00:00 12.5 2 Sudoeste 12 Sudoeste 2.3 -- -- 90
2019-10-21 07:00:00 13.1 0 Calma 10 Este 2.2 -- -- 90
2019-10-21 06:00:00 13.4 2 Sudeste 17 Sudeste 1.9 -- -- 90
2019-10-21 05:00:00 13.5 0 Calma 18 Sudeste 1.2 -- -- 90
2019-10-21 04:00:00 13.1 0 Calma 19 Noroeste 0 -- -- 90
2019-10-21 03:00:00 13.4 0 Calma 15 Sur 0.1 -- -- 90
2019-10-21 02:00:00 14.4 3 Sudeste 25 Sudeste 4.3 -- -- 88
2019-10-21 01:00:00 14.7 2 Sudeste 22 Sur 2 -- -- 85
2019-10-21 00:00:00 14.7 4 Sudeste 16 Sudeste 0.1 -- -- 85
2019-10-20 23:00:00 13.9 3 Sudeste 12 Sur 0.1 -- -- 85
2019-10-20 22:00:00 13.7 4 Este 14 Sudeste 0.2 -- -- 86
2019-10-20 21:00:00 14.1 0 Calma 23 Sudoeste 0.6 -- -- 83
2019-10-20 20:00:00 15.8 0 Calma 9 Sudoeste 0.3 -- -- 89
2019-10-20 19:00:00 16.4 0 Calma 8 Noroeste 0.2 -- -- 86
2019-10-20 18:00:00 17.5 0 Calma 18 Sudeste 0 -- -- 77
2019-10-20 17:00:00 19.3 2 Sudeste 12 Sur 0 -- -- 67
2019-10-20 16:00:00 20.7 0 Calma 22 Oeste 0 -- -- 63
2019-10-20 15:00:00 20.4 6 Sur 31 Sur 0 -- -- 68
2019-10-20 14:00:00 20.4 2 Sur 31 Sudeste 0 -- -- 68
2019-10-20 13:00:00 21.9 7 Sur 31 Sudeste 0 -- -- 61
2019-10-20 12:00:00 20.4 6 Sudeste 36 Sudeste 0 -- -- 70
2019-10-20 11:00:00 20.1 5 Este 33 Sudeste 0 -- -- 71
2019-10-20 10:00:00 19.3 4 Este 32 Sur 0 -- -- 75
2019-10-20 09:00:00 18.8 7 Sudeste 32 Sur 0 -- -- 79
2019-10-20 08:00:00 18.2 7 Sudeste 33 Sudeste 0 -- -- 83
2019-10-20 07:00:00 17.8 6 Sudeste 32 Sur 0 -- -- 82
2019-10-20 06:00:00 17.7 8 Sur 32 Sudoeste 0 -- -- 83
2019-10-20 05:00:00 17.6 11 Sur 35 Sur 0 -- -- 79
2019-10-20 04:00:00 17.6 7 Sudeste 36 Sudeste 0 -- -- 73
2019-10-20 03:00:00 17.4 9 Sudeste 37 Sudoeste 0 -- -- 78
2019-10-20 02:00:00 17.7 12 Sur 41 Sur 0 -- -- 80
2019-10-20 01:00:00 17.7 11 Sur 37 Sur 0 -- -- 80
2019-10-20 00:00:00 18 8 Sur 27 Sur 0 -- -- 77
2019-10-19 23:00:00 18 6 Sudeste 28 Sur 0 -- -- 81
2019-10-19 22:00:00 18 5 Sur 26 Sur 0 -- -- 83
2019-10-19 21:00:00 17.8 5 Sur 35 Sudeste 0 -- -- 80
2019-10-19 20:00:00 18 3 Sudeste 22 Sur 0 -- -- 83
2019-10-19 19:00:00 17.8 7 Sur 24 Sur 0 -- -- 76
2019-10-19 18:00:00 18.2 7 Sur 24 Sur 0 -- -- 65
2019-10-19 17:00:00 19 10 Sudoeste 33 Sudoeste 0 -- -- 58
2019-10-19 16:00:00 20.5 12 Sur 33 Sur 0 -- -- 54
2019-10-19 15:00:00 21.1 10 Sur 33 Sur 0 -- -- 53
2019-10-19 14:00:00 21.6 13 Sur 39 Sur 0 -- -- 51
2019-10-19 13:00:00 22.4 10 Sur 28 Sur 0 -- -- 48
2019-10-19 12:00:00 22.4 6 Sur 35 Sudeste 0 -- -- 41
2019-10-19 11:00:00 21.5 5 Sudeste 18 Sudeste 0 -- -- 47
2019-10-19 10:00:00 20.2 3 Oeste 23 Sudoeste 0 -- -- 37
2019-10-19 09:00:00 16.6 3 Norte 14 Oeste 0 -- -- 52
2019-10-19 08:00:00 17.7 3 Sudoeste 32 Sur 0 -- -- 46
2019-10-19 07:00:00 17.8 8 Sur 29 Sudoeste 0 -- -- 49
2019-10-19 06:00:00 16.7 6 Sudoeste 22 Sudoeste 0 -- -- 52
2019-10-19 05:00:00 16.1 7 Sudoeste 19 Sudoeste 0 -- -- 52
2019-10-19 04:00:00 16.9 8 Sudoeste 30 Sudoeste 0 -- -- 48
2019-10-19 03:00:00 16.2 6 Sudoeste 26 Oeste 0 -- -- 56
2019-10-19 02:00:00 17.5 0 Calma 28 Sudoeste 0 -- -- 56
2019-10-19 01:00:00 18.2 5 Sur 21 Sur 0 -- -- 54
2019-10-19 00:00:00 17.9 0 Calma 17 Sur 0 -- -- 57
2019-10-18 23:00:00 18 3 Sur 34 Sudoeste 0 -- -- 58
2019-10-18 22:00:00 15.7 0 Calma 9 Este 0 -- -- 78
2019-10-18 21:00:00 16.3 0 Calma 9 Nordeste 0 -- -- 77
2019-10-18 20:00:00 17.2 2 Este 20 Oeste 0 -- -- 75
2019-10-18 19:00:00 18.8 2 Sudoeste 19 Sudoeste 0 -- -- 62
2019-10-18 18:00:00 19.6 0 Calma 9 Este 0 -- -- 67
2019-10-18 17:00:00 20.3 0 Calma 10 Nordeste 0 -- -- 65
2019-10-18 16:00:00 21.6 0 Calma 9 Noroeste 0 -- -- 62
2019-10-18 15:00:00 21.6 0 Calma 13 Sudeste 0 -- -- 62
2019-10-18 14:00:00 21.5 2 Nordeste 13 Este 0 -- -- 60
2019-10-18 13:00:00 21.5 0 Calma 12 Sudoeste 0 -- -- 59
2019-10-18 12:00:00 20.7 3 Este 14 Este 0 -- -- 56
2019-10-18 11:00:00 19.9 0 Calma 12 Sur 0 -- -- 51
2019-10-18 10:00:00 16 0 Calma 7 Noroeste 0 -- -- 80
2019-10-18 09:00:00 10.1 0 Calma -- -- 0 -- -- 90
2019-10-18 08:00:00 8.5 0 Calma -- -- 0 -- -- 90
2019-10-18 07:00:00 8.6 0 Calma -- -- 0 -- -- 89
2019-10-18 06:00:00 8.7 0 Calma -- -- 0 -- -- 89
2019-10-18 05:00:00 8.8 0 Calma -- -- 0 -- -- 88
2019-10-18 04:00:00 9.1 0 Calma -- -- 0 -- -- 86
2019-10-18 03:00:00 9.5 0 Calma -- -- 0 -- -- 83
2019-10-18 02:00:00 9.8 0 Calma -- -- 0 -- -- 83
2019-10-18 01:00:00 10.3 0 Calma -- -- 0 -- -- 82
2019-10-18 00:00:00 11 0 Calma -- -- 0 -- -- 83
2019-10-17 23:00:00 11.7 0 Calma -- -- 0 -- -- 81
2019-10-17 22:00:00 12.9 0 Calma 7 Este 0 -- -- 82
2019-10-17 21:00:00 14.7 0 Calma 10 Sudoeste 0 -- -- 76
2019-10-17 20:00:00 16.4 2 Sudeste 15 Sudeste 0 -- -- 82
2019-10-17 19:00:00 16.8 0 Calma 14 Sur 0 -- -- 78
2019-10-17 18:00:00 18.3 0 Calma 17 Sudoeste 0 -- -- 69
2019-10-17 17:00:00 20 3 Sur 18 Sur 0 -- -- 58
2019-10-17 16:00:00 20.7 5 Sur 22 Sur 0 -- -- 55
2019-10-17 15:00:00 20.5 7 Sur 25 Sur 0 -- -- 57
2019-10-17 14:00:00 20.8 4 Sudeste 21 Sur 0 -- -- 55
2019-10-17 13:00:00 20.5 8 Sur 24 Sudeste 0 -- -- 52
2019-10-17 12:00:00 20.7 5 Sur 25 Sur 0 -- -- 54
2019-10-17 11:00:00 19.1 9 Sur 26 Sudoeste 0 -- -- 60
2019-10-17 10:00:00 17.5 0 Calma 23 Sur 0 -- -- 69
2019-10-17 09:00:00 10.4 0 Calma 8 Sur 0 -- -- 90
2019-10-17 08:00:00 7.7 0 Calma -- -- 0 -- -- 90
2019-10-17 07:00:00 7.6 0 Calma -- -- 0 -- -- 90
2019-10-17 06:00:00 7.8 0 Calma -- -- 0 -- -- 90
2019-10-17 05:00:00 8 0 Calma -- -- 0 -- -- 90
2019-10-17 04:00:00 8.1 0 Calma -- -- 0 -- -- 89
2019-10-17 03:00:00 8.4 0 Calma -- -- 0 -- -- 88
2019-10-17 02:00:00 8.6 0 Calma -- -- 0 -- -- 88
2019-10-17 01:00:00 8.9 0 Calma -- -- 0 -- -- 86
2019-10-17 00:00:00 9.3 0 Calma -- -- 0 -- -- 82
2019-10-16 23:00:00 9.5 0 Calma -- -- 0 -- -- 79
2019-10-16 22:00:00 10.3 0 Calma -- -- 0 -- -- 80
2019-10-16 21:00:00 11.1 0 Calma -- -- 0 -- -- 80
2019-10-16 20:00:00 12.6 0 Calma 2 Este 0 -- -- 81
2019-10-16 19:00:00 14.3 0 Calma 4 Sudeste 0 -- -- 76
2019-10-16 18:00:00 16.5 0 Calma 12 Sur 0 -- -- 64
2019-10-16 17:00:00 18.4 6 Sur 24 Sur 0 -- -- 53
2019-10-16 16:00:00 19.1 6 Sur 25 Sur 0 -- -- 49
2019-10-16 15:00:00 19.7 6 Sur 21 Sur 0 -- -- 44
2019-10-16 14:00:00 19.6 6 Sur 25 Sur 0 -- -- 41
2019-10-16 13:00:00 19.9 8 Sur 25 Sur 0 -- -- 37
2019-10-16 12:00:00 20.1 7 Sur 19 Sur 0 -- -- 35
2019-10-16 11:00:00 18.2 9 Sur 22 Sur 0 -- -- 41
2019-10-16 10:00:00 13.4 0 Calma 6 Norte 0 -- -- 84
2019-10-16 09:00:00 8.5 0 Calma 8 Sudoeste 0 -- -- 90
2019-10-16 08:00:00 6.5 0 Calma -- -- 0 -- -- 90
2019-10-16 07:00:00 6.8 0 Calma -- -- 0 -- -- 90
2019-10-16 06:00:00 6.9 0 Calma -- -- 0 -- -- 90
2019-10-16 05:00:00 7.1 0 Calma -- -- 0 -- -- 90
2019-10-16 04:00:00 7.4 0 Calma -- -- 0 -- -- 90
2019-10-16 03:00:00 7.7 0 Calma -- -- 0 -- -- 90
2019-10-16 02:00:00 7.9 0 Calma -- -- 0 -- -- 89
2019-10-16 01:00:00 8.3 0 Calma -- -- 0 -- -- 89
2019-10-16 00:00:00 8.5 0 Calma -- -- 0 -- -- 87
2019-10-15 23:00:00 8.8 0 Calma -- -- 0 -- -- 84
2019-10-15 22:00:00 9.7 0 Calma 7 Sudeste 0 -- -- 81
2019-10-15 21:00:00 10.5 0 Calma 12 Sudoeste 0 -- -- 76
2019-10-15 20:00:00 11.6 4 Sudoeste 15 Sudoeste 0 -- -- 69
2019-10-15 19:00:00 13.2 0 Calma 16 Sudeste 0 -- -- 59
2019-10-15 18:00:00 14.3 5 Sur 27 Sur 0 -- -- 54
2019-10-15 17:00:00 14.7 3 Sur 22 Sudeste 0 -- -- 54
2019-10-15 16:00:00 15.5 6 Sur 26 Sudeste 0 -- -- 51
2019-10-15 15:00:00 16.1 6 Sudeste 29 Sudeste 0 -- -- 51
2019-10-15 14:00:00 15.8 7 Sudeste 27 Sur 0 -- -- 52
2019-10-15 13:00:00 16.3 5 Sudeste 27 Este 0 -- -- 53
2019-10-15 12:00:00 17 5 Sur 28 Sur 0 -- -- 51
2019-10-15 11:00:00 16.2 7 Sudeste 26 Sudeste 0 -- -- 55
2019-10-15 10:00:00 15.4 8 Sur 31 Sur 0 -- -- 61
2019-10-15 09:00:00 13.8 8 Sudeste 26 Sudeste 0.1 -- -- 71
2019-10-15 08:00:00 12.8 5 Sudeste 22 Sudoeste 0.8 -- -- 85
2019-10-15 07:00:00 13.8 3 Sudeste 24 Sudeste 1.5 -- -- 85
2019-10-15 06:00:00 16 6 Sudeste 30 Sudeste 0.1 -- -- 85
2019-10-15 05:00:00 17.7 2 Sudoeste 31 Oeste 0 -- -- 71
2019-10-15 04:00:00 17.7 14 Oeste 35 Sudoeste 0 -- -- 73
2019-10-15 03:00:00 17.7 0 Calma 23 Sur 0.2 -- -- 83
2019-10-15 02:00:00 18.6 3 Sur 32 Sudoeste 0 -- -- 77
2019-10-15 01:00:00 18.3 13 Sudoeste 30 Sudoeste 0 -- -- 77
2019-10-15 00:00:00 18.1 10 Sur 32 Sudoeste 0 -- -- 83
2019-10-14 23:00:00 17.3 7 Sur 16 Sur 0 -- -- 87
2019-10-14 22:00:00 17.7 6 Sur 17 Sur 0 -- -- 86
2019-10-14 21:00:00 18.3 7 Sudeste 22 Sur 0.6 -- -- 86
2019-10-14 20:00:00 17.9 0 Calma 13 Sudoeste 0.1 -- -- 89
2019-10-14 19:00:00 18.7 3 Sur 15 Sudoeste 0 -- -- 88
2019-10-14 18:00:00 19.8 2 Sur 17 Sudeste 0.4 -- -- 87
2019-10-14 17:00:00 21.7 4 Sur 33 Sur 0 -- -- 75
2019-10-14 16:00:00 25.1 4 Sudoeste 34 Sudeste 0 -- -- 43
2019-10-14 15:00:00 25.8 7 Sudeste 28 Sudeste 0 -- -- 35
2019-10-14 14:00:00 25.9 10 Sudeste 33 Sudoeste 0 -- -- 34
2019-10-14 13:00:00 26.8 11 Sur 33 Sudoeste 0 -- -- 30
2019-10-14 12:00:00 26 12 Sur 36 Sur 0 -- -- 32
2019-10-14 11:00:00 24.2 12 Sur 30 Sudeste 0 -- -- 38
2019-10-14 10:00:00 22.7 8 Sur 26 Sur 0 -- -- 40
2019-10-14 09:00:00 18.6 4 Sudeste 12 Sudeste 0 -- -- 52
2019-10-14 08:00:00 12.9 0 Calma -- -- 0 -- -- 88
2019-10-14 07:00:00 12.2 0 Calma 7 Este 0 -- -- 90
2019-10-14 06:00:00 11.7 0 Calma -- -- 0 -- -- 89
2019-10-14 05:00:00 12.1 0 Calma -- -- 0 -- -- 88
2019-10-14 04:00:00 12.8 0 Calma -- -- 0 -- -- 86
2019-10-14 03:00:00 13.8 0 Calma -- -- 0 -- -- 83
2019-10-14 02:00:00 14.5 0 Calma 6 Este 0 -- -- 77
2019-10-14 01:00:00 16 0 Calma 4 Noroeste 0 -- -- 76
2019-10-14 00:00:00 15.8 0 Calma 4 Oeste 0 -- -- 78
2019-10-13 23:00:00 16.5 0 Calma 5 Noroeste 0 -- -- 79
2019-10-13 22:00:00 18.4 0 Calma 19 Sur 0 -- -- 84
2019-10-13 21:00:00 19 6 Sudeste 22 Sudeste 0 -- -- 88
2019-10-13 20:00:00 19.8 8 Sudeste 18 Sur 0 -- -- 86
2019-10-13 19:00:00 20.6 7 Sudeste 22 Sudeste 0 -- -- 81
2019-10-13 18:00:00 21.5 8 Sudeste 23 Sur 0 -- -- 75
2019-10-13 17:00:00 22.8 5 Sudeste 19 Sur 0 -- -- 70
2019-10-13 16:00:00 23.4 6 Sudeste 21 Sudeste 0 -- -- 67
2019-10-13 15:00:00 23.6 6 Sudeste 24 Sudeste 0 -- -- 65
2019-10-13 14:00:00 23.4 6 Este 18 Sudeste 0 -- -- 60
2019-10-13 13:00:00 22.8 8 Sudeste 27 Este 0 -- -- 65
2019-10-13 12:00:00 22.5 10 Sudeste 28 Sudeste 0 -- -- 69
2019-10-13 11:00:00 20.7 8 Sudeste 26 Sudeste 0 -- -- 76
2019-10-13 10:00:00 19.8 7 Sudeste 26 Sudeste 0 -- -- 80
2019-10-13 09:00:00 17.8 0 Calma 16 Nordeste 0 -- -- 83
2019-10-13 08:00:00 16.9 2 Este 12 Sudeste 0 -- -- 81
2019-10-13 07:00:00 16.7 4 Este 10 Este 0 -- -- 89
2019-10-13 06:00:00 16.6 0 Calma 5 Sudeste 0 -- -- 88
2019-10-13 05:00:00 17.3 0 Calma 11 Sudeste 0 -- -- 84
2019-10-13 04:00:00 17.7 0 Calma 23 Sur 0 -- -- 83
2019-10-13 03:00:00 17.6 7 Sudeste 21 Sudeste 0 -- -- 82
2019-10-13 02:00:00 17.5 8 Sudeste 21 Sudeste 0 -- -- 86
2019-10-13 01:00:00 17.7 7 Sudeste 21 Sur 0 -- -- 76
2019-10-13 00:00:00 17.7 8 Sudeste 21 Sur 0 -- -- 78
2019-10-12 23:00:00 18 8 Sudeste 26 Sur 0 -- -- 85
2019-10-12 22:00:00 18.1 8 Sur 26 Sudeste 0 -- -- 86
2019-10-12 21:00:00 18.4 8 Sudeste 29 Sur 0 -- -- 87
2019-10-12 20:00:00 18.8 10 Sudeste 27 Sudeste 0 -- -- 85
2019-10-12 19:00:00 19.6 9 Sudeste 26 Sudeste 0 -- -- 78
2019-10-12 18:00:00 20.6 8 Sudeste 22 Sudeste 0 -- -- 71
2019-10-12 17:00:00 22 7 Sudeste 23 Sudeste 0 -- -- 65
2019-10-12 16:00:00 22.4 8 Sudeste 28 Sudeste 0 -- -- 63
2019-10-12 15:00:00 22.5 8 Sudeste 25 Sudeste 0 -- -- 62
2019-10-12 14:00:00 22.2 8 Sur 27 Nordeste 0 -- -- 64
2019-10-12 13:00:00 22 10 Sudeste 26 Sudeste 0 -- -- 65
2019-10-12 12:00:00 20.7 8 Sudeste 23 Sudeste 0 -- -- 71
2019-10-12 11:00:00 19.7 6 Este 22 Sudeste 0 -- -- 75
2019-10-12 10:00:00 17.8 9 Sudeste 28 Sudeste 0 -- -- 83
2019-10-12 09:00:00 16.9 8 Sudeste 23 Sudeste 0 -- -- 84
2019-10-12 08:00:00 16.3 5 Sudeste 19 Sur 0 -- -- 85
2019-10-12 07:00:00 16.4 6 Sudeste 16 Sur 0 -- -- 82
2019-10-12 06:00:00 16.6 6 Sudeste 17 Sur 0 -- -- 78
2019-10-12 05:00:00 17 7 Sudeste 24 Sur 0 -- -- 79
2019-10-12 04:00:00 16.9 6 Sudeste 24 Sudoeste 0 -- -- 77
2019-10-12 03:00:00 17.2 6 Sudeste 22 Sur 0 -- -- 74
2019-10-12 02:00:00 17 8 Sudeste 24 Sur 0 -- -- 76
2019-10-12 01:00:00 17.1 8 Sur 29 Sudeste 0 -- -- 75
2019-10-12 00:00:00 17 10 Sudeste 29 Sudoeste 0 -- -- 79
2019-10-11 23:00:00 17.3 9 Sur 29 Sudeste 0 -- -- 83
2019-10-11 22:00:00 17.3 8 Sudeste 26 Sudeste 0 -- -- 86
2019-10-11 21:00:00 17.9 10 Sudeste 23 Sudeste 0 -- -- 83
2019-10-11 20:00:00 18.5 9 Sudeste 26 Sur 0 -- -- 78
2019-10-11 19:00:00 19.5 6 Sudeste 20 Sudoeste 0 -- -- 70
2019-10-11 18:00:00 20.4 4 Sudeste 19 Sudeste 0 -- -- 67
2019-10-11 17:00:00 21 4 Sudeste 21 Sudeste 0 -- -- 64
2019-10-11 16:00:00 21.8 3 Sudeste 17 Sudoeste 0 -- -- 60
2019-10-11 15:00:00 21.7 5 Sudoeste 20 Sur 0 -- -- 59
2019-10-11 14:00:00 21.8 6 Sur 22 Sudoeste 0 -- -- 59
2019-10-11 13:00:00 22.4 5 Sur 17 Sudoeste 0 -- -- 58
2019-10-11 12:00:00 22 5 Sur -- -- -- -- -- 63
2019-10-11 11:00:00 20.5 5 Sudeste 18 Sudeste 0 -- -- 70
2019-10-11 10:00:00 19.2 0 Calma 9 Sudeste 0 -- -- 73
2019-10-11 09:00:00 16.1 3 Este 12 Este 0 -- -- 89
2019-10-11 08:00:00 14.5 2 Este 10 Este 0 -- -- 90
2019-10-11 07:00:00 13.7 3 Este 7 Este 0 -- -- 90
2019-10-11 06:00:00 12.8 0 Calma 6 Este 0 -- -- 90
2019-10-11 05:00:00 12.7 0 Calma 7 Este 0 -- -- 90
2019-10-11 04:00:00 12.3 0 Calma -- -- 0 -- -- 90
2019-10-11 03:00:00 12.9 0 Calma -- -- 0 -- -- 89
2019-10-11 02:00:00 13.9 0 Calma -- -- 0 -- -- 88
2019-10-11 01:00:00 14.8 0 Calma 10 Este 0 -- -- 87
2019-10-11 00:00:00 15.3 0 Calma 13 Nordeste 0 -- -- 86
2019-10-10 23:00:00 15.7 4 Este 17 Sudeste 0 -- -- 84
2019-10-10 22:00:00 16.3 4 Sudeste 15 Sudeste 0 -- -- 82
2019-10-10 21:00:00 16.3 4 Sudeste 15 Sudeste 0 -- -- 80
2019-10-10 20:00:00 16.4 5 Sudeste 15 Sur 0 -- -- 80
2019-10-10 19:00:00 16.9 5 Sudeste 16 Este 0 -- -- 77
2019-10-10 18:00:00 17.4 4 Sudeste 15 Sudeste 0 -- -- 74
2019-10-10 17:00:00 17.5 6 Sudeste 21 Sudeste 0 -- -- 73
2019-10-10 16:00:00 18 5 Sudeste 18 Sudoeste 0 -- -- 70
2019-10-10 15:00:00 17.9 3 Sudeste 18 Sur 0 -- -- 73
2019-10-10 14:00:00 18.1 6 Sudeste 16 Sudoeste 0 -- -- 74
2019-10-10 13:00:00 17.9 5 Sudeste 13 Sudeste 0 -- -- 79
2019-10-10 12:00:00 17.3 5 Sudeste 17 Sudoeste 0 -- -- 83
2019-10-10 11:00:00 16.3 4 Sur 16 Sur 0 -- -- 87
2019-10-10 10:00:00 16.5 3 Sudeste 12 Sudeste 0 -- -- 88
2019-10-10 09:00:00 16.5 2 Sur 12 Sudeste 0 -- -- 89
2019-10-10 08:00:00 16.4 4 Sudeste 15 Sudeste 0 -- -- 89
2019-10-10 07:00:00 16.8 4 Sudeste 11 Sur 0 -- -- 87
2019-10-10 06:00:00 16.4 0 Calma 11 Sudeste 0 -- -- 86
2019-10-10 05:00:00 16.4 3 Sudeste 10 Sur 0 -- -- 88
2019-10-10 04:00:00 16.6 2 Sur 11 Sur 0 -- -- 88
2019-10-10 03:00:00 16.4 4 Sur 14 Sur 0 -- -- 87
2019-10-10 02:00:00 16.3 5 Sur 17 Sur 0 -- -- 88
2019-10-10 01:00:00 15.5 0 Calma -- -- -- -- -- 87
2019-10-10 00:00:00 16.5 0 Calma 12 Sur 0 -- -- 86
2019-10-09 23:00:00 16.3 0 Calma 13 Sur 0 -- -- 86
2019-10-09 22:00:00 16.5 4 Sur 14 Sur 0 -- -- 86
2019-10-09 21:00:00 16.8 0 Calma 10 Sudoeste 0 -- -- 84
2019-10-09 20:00:00 17.9 0 Calma 12 Sudoeste 0 -- -- 79
2019-10-09 19:00:00 18.3 0 Calma 13 Nordeste 0 -- -- 77
2019-10-09 18:00:00 19 0 Calma 14 Sudoeste 0 -- -- 73
2019-10-09 17:00:00 20.1 8 Sudoeste 20 Sudoeste 0 -- -- 62
2019-10-09 16:00:00 21.3 2 Sudeste 17 Este 0 -- -- 55
2019-10-09 15:00:00 22.3 6 Este 19 Sudeste 0 -- -- 46
2019-10-09 14:00:00 22.1 0 Calma 13 Sudeste 0 -- -- 48
2019-10-09 13:00:00 23.1 0 Calma 12 Este 0 -- -- 43
2019-10-09 12:00:00 22.4 0 Calma 11 Sudeste 0 -- -- 40
2019-10-09 11:00:00 21.8 3 Sudeste 12 Sudeste 0 -- -- 41
2019-10-09 10:00:00 19.4 4 Sudeste 14 Sudeste 0 -- -- 51
2019-10-09 09:00:00 12.4 0 Calma -- -- 0 -- -- 84
2019-10-09 08:00:00 10.8 0 Calma -- -- 0 -- -- 84
2019-10-09 07:00:00 11.3 0 Calma -- -- 0 -- -- 83
2019-10-09 06:00:00 11.4 0 Calma -- -- 0 -- -- 80
2019-10-09 05:00:00 12.2 0 Calma 7 Sur 0 -- -- 74
2019-10-09 04:00:00 13 0 Calma 11 Sudeste 0 -- -- 75
2019-10-09 03:00:00 14.6 3 Sudeste 16 Sur 0 -- -- 76
2019-10-09 02:00:00 12.8 0 Calma 9 Este 0 -- -- 79
2019-10-09 01:00:00 11.8 0 Calma -- -- 0 -- -- 87
2019-10-09 00:00:00 11.7 0 Calma -- -- 0 -- -- 88
2019-10-08 23:00:00 12.4 0 Calma 0 Calma 0 -- -- 88
2019-10-08 22:00:00 13.2 0 Calma 2 Sur 0 -- -- 87
2019-10-08 21:00:00 14.1 0 Calma -- -- 0 -- -- 85
2019-10-08 20:00:00 15.3 0 Calma -- -- 0 -- -- 82
2019-10-08 19:00:00 16.9 0 Calma 4 Sur 0 -- -- 75
2019-10-08 18:00:00 18.8 0 Calma 11 Sudeste 0 -- -- 64
2019-10-08 17:00:00 19.9 2 Sudeste 9 Sudeste 0 -- -- 55
2019-10-08 16:00:00 19.6 2 Sudoeste 14 Oeste 0 -- -- 56
2019-10-08 15:00:00 21.5 3 Sur 14 Sudoeste 0 -- -- 47
2019-10-08 14:00:00 21.4 3 Sur 14 Sur 0 -- -- 47
2019-10-08 13:00:00 21.5 2 Sur 10 Sur 0 -- -- 44
2019-10-08 12:00:00 20.6 0 Calma 12 Nordeste 0 -- -- 49
2019-10-08 11:00:00 19.3 5 Este 13 Sudeste 0 -- -- 54
2019-10-08 10:00:00 16.5 0 Calma 9 Este 0 -- -- 73
2019-10-08 09:00:00 10.8 0 Calma 7 Sudeste 0 -- -- 90
2019-10-08 08:00:00 8.3 0 Calma -- -- 0 -- -- 90
2019-10-08 07:00:00 8.4 0 Calma 3 Este 0 -- -- 90
2019-10-08 06:00:00 8.9 0 Calma 5 Sur 0 -- -- 90
2019-10-08 05:00:00 8.8 0 Calma 3 Sudeste 0 -- -- 89
2019-10-08 04:00:00 9.3 0 Calma 5 Oeste 0 -- -- 88
2019-10-08 03:00:00 10.1 0 Calma 5 Sudeste 0 -- -- 88
2019-10-08 02:00:00 11.1 0 Calma 8 Nordeste 0 -- -- 88
2019-10-08 01:00:00 11.8 0 Calma 10 Oeste 0 -- -- 90
2019-10-08 00:00:00 10.9 0 Calma -- -- 0 -- -- 89
2019-10-07 23:00:00 11.6 0 Calma -- -- 0 -- -- 88
2019-10-07 22:00:00 12.2 0 Calma -- -- 0 -- -- 86
2019-10-07 21:00:00 13.4 0 Calma -- -- 0 -- -- 84
2019-10-07 20:00:00 15.1 0 Calma 8 Sur 0 -- -- 83
2019-10-07 19:00:00 16.3 0 Calma 11 Sur 0 -- -- 77
2019-10-07 18:00:00 17.1 0 Calma 12 Sur 0 -- -- 71
2019-10-07 17:00:00 18 3 Sur 14 Sur 0 -- -- 65
2019-10-07 16:00:00 18.5 3 Sur 15 Sur 0 -- -- 64
2019-10-07 15:00:00 17.8 7 Este 19 Este 0 -- -- 62
2019-10-07 14:00:00 18.7 2 Nordeste 20 Este 0 -- -- 61
2019-10-07 13:00:00 17.8 2 Este 22 Este 0 -- -- 60
2019-10-07 12:00:00 17.1 5 Este 20 Este 0 -- -- 68
2019-10-07 11:00:00 17.4 0 Calma 13 Sudeste 0 -- -- 71
2019-10-07 10:00:00 14.5 0 Calma 11 Sudoeste 0.2 -- -- 87
2019-10-07 09:00:00 14.5 2 Este 17 Nordeste 0.3 -- -- 84
2019-10-07 08:00:00 15.5 0 Calma 21 Sur 0 -- -- 70
2019-10-07 07:00:00 16 2 Sudeste 35 Sur 0 -- -- 65
2019-10-07 06:00:00 16.4 6 Sur 31 Sudeste 0 -- -- 64
2019-10-07 05:00:00 17.1 7 Sur 29 Sudeste 0 -- -- 63
2019-10-07 04:00:00 17.7 5 Sur 23 Sudoeste 0 -- -- 69
2019-10-07 03:00:00 15.6 0 Calma 12 Sudoeste 0 -- -- 90
2019-10-07 02:00:00 12.8 0 Calma -- -- 0 -- -- 89
2019-10-07 01:00:00 12.5 0 Calma -- -- 0 -- -- 89
2019-10-07 00:00:00 12.7 0 Calma -- -- 0 -- -- 89
2019-10-06 23:00:00 13.3 0 Calma -- -- 0 -- -- 89
2019-10-06 22:00:00 13.7 0 Calma -- -- 0 -- -- 87
2019-10-06 21:00:00 14.6 0 Calma -- -- 0 -- -- 86
2019-10-06 20:00:00 16.4 0 Calma 3 Sur 0 -- -- 85
2019-10-06 19:00:00 17.6 0 Calma 8 Sur 0 -- -- 82
2019-10-06 18:00:00 19.3 2 Sur 11 Sur 0 -- -- 75
2019-10-06 17:00:00 20.1 4 Este 18 Sudeste 0 -- -- 75
2019-10-06 16:00:00 20.5 0 Calma 11 Este 0 -- -- 71
2019-10-06 15:00:00 20.6 0 Calma 6 Este 0 -- -- 74
2019-10-06 14:00:00 20.1 0 Calma 13 Sur 0 -- -- 75
2019-10-06 13:00:00 20.2 5 Sudeste 15 Este 0 -- -- 71
2019-10-06 12:00:00 21.6 2 Sudeste 16 Sudoeste 0 -- -- 62
2019-10-06 11:00:00 21.1 0 Calma 13 Este 0 -- -- 65
2019-10-06 10:00:00 18.1 2 Este 8 Sudeste 0 -- -- 88
2019-10-06 09:00:00 13.6 0 Calma -- -- 0 -- -- 89
2019-10-06 08:00:00 11.4 0 Calma -- -- 0 -- -- 89
2019-10-06 07:00:00 11.7 0 Calma -- -- 0 -- -- 90
2019-10-06 06:00:00 12.2 0 Calma -- -- 0 -- -- 89
2019-10-06 05:00:00 12.6 0 Calma -- -- 0 -- -- 89
2019-10-06 04:00:00 13.1 0 Calma -- -- 0 -- -- 89
2019-10-06 03:00:00 13.9 0 Calma -- -- 0 -- -- 89
2019-10-06 02:00:00 14.6 0 Calma -- -- 0 -- -- 89
2019-10-06 01:00:00 14.7 0 Calma -- -- 0 -- -- 89
2019-10-06 00:00:00 14.9 0 Calma -- -- 0 -- -- 89
2019-10-05 23:00:00 15.1 0 Calma 6 Este 0 -- -- 89
2019-10-05 22:00:00 16.3 0 Calma 6 Este 0 -- -- 88
2019-10-05 21:00:00 17.1 0 Calma 14 Sudeste 0 -- -- 87
2019-10-05 20:00:00 18 3 Sudeste 12 Este 0 -- -- 85
2019-10-05 19:00:00 18.6 3 Sudeste 18 Este 0 -- -- 81
2019-10-05 18:00:00 19.5 5 Sudeste 18 Sudeste 0 -- -- 77
2019-10-05 17:00:00 19.9 5 Sudeste 16 Sudeste 0 -- -- 74
2019-10-05 16:00:00 20 6 Sur 17 Sudeste 0 -- -- 72
2019-10-05 15:00:00 20.3 4 Sudeste 17 Sur 0 -- -- 68
2019-10-05 14:00:00 20.2 5 Este 19 Este 0 -- -- 69
2019-10-05 13:00:00 21.3 4 Este 18 Sudeste 0 -- -- 65
2019-10-05 12:00:00 20.6 6 Sudeste 19 Sudeste 0 -- -- 65
2019-10-05 11:00:00 20.9 6 Sudeste 17 Sudeste 0 -- -- 63
2019-10-05 10:00:00 16.6 0 Calma -- -- 0 -- -- 83
2019-10-05 09:00:00 11.6 0 Calma -- -- 0 -- -- 90
2019-10-05 08:00:00 10 0 Calma -- -- 0 -- -- 90
2019-10-05 07:00:00 10.3 0 Calma -- -- 0 -- -- 89
2019-10-05 06:00:00 10.4 0 Calma -- -- 0 -- -- 90
2019-10-05 05:00:00 10.6 0 Calma -- -- 0 -- -- 89
2019-10-05 04:00:00 11 0 Calma -- -- 0 -- -- 89
2019-10-05 03:00:00 11.2 0 Calma -- -- 0 -- -- 89
2019-10-05 02:00:00 11.6 0 Calma -- -- 0 -- -- 89
2019-10-05 01:00:00 11.8 0 Calma -- -- 0 -- -- 88
2019-10-05 00:00:00 12.1 0 Calma -- -- 0 -- -- 88
2019-10-04 23:00:00 12.5 0 Calma -- -- 0 -- -- 87
2019-10-04 22:00:00 13.4 0 Calma 3 Sudeste 0 -- -- 85
2019-10-04 21:00:00 14.3 0 Calma -- -- 0 -- -- 85
2019-10-04 20:00:00 15.4 0 Calma -- -- 0 -- -- 82
2019-10-04 19:00:00 16.8 0 Calma 6 Sudoeste 0 -- -- 71
2019-10-04 18:00:00 19.1 0 Calma 13 Sudoeste 0 -- -- 60
2019-10-04 17:00:00 21.4 0 Calma 17 Sudoeste 0 -- -- 46
2019-10-04 16:00:00 21.7 3 Sudoeste 15 Sudoeste 0 -- -- 49
2019-10-04 15:00:00 22 0 Calma 12 Sudoeste 0 -- -- 52
2019-10-04 14:00:00 21.4 3 Sudeste 15 Sudeste 0 -- -- 56
2019-10-04 13:00:00 21.4 4 Sudeste 14 Sudoeste 0 -- -- 57
2019-10-04 12:00:00 21.3 4 Sudeste 10 Sudeste 0 -- -- 59
2019-10-04 11:00:00 19.7 4 Sudeste 14 Sudeste 0 -- -- 68
2019-10-04 10:00:00 16.7 2 Este 9 Sudeste 0 -- -- 89
2019-10-04 09:00:00 10.4 0 Calma -- -- 0 -- -- 90
2019-10-04 08:00:00 8.6 0 Calma -- -- 0 -- -- 90
2019-10-04 07:00:00 8.7 0 Calma -- -- 0 -- -- 90
2019-10-04 06:00:00 9.5 0 Calma -- -- 0 -- -- 90
2019-10-04 05:00:00 9.9 0 Calma -- -- 0 -- -- 90
2019-10-04 04:00:00 10 0 Calma -- -- 0 -- -- 90
2019-10-04 03:00:00 10.4 0 Calma -- -- 0 -- -- 89
2019-10-04 02:00:00 10.8 0 Calma -- -- 0 -- -- 89
2019-10-04 01:00:00 10.9 0 Calma -- -- 0 -- -- 89
2019-10-04 00:00:00 11.4 0 Calma -- -- 0 -- -- 89
2019-10-03 23:00:00 12.6 0 Calma -- -- 0 -- -- 89
2019-10-03 22:00:00 13.3 0 Calma -- -- 0 -- -- 88
2019-10-03 21:00:00 13.7 0 Calma -- -- 0 -- -- 86
2019-10-03 20:00:00 14.9 0 Calma -- -- 0 -- -- 82
2019-10-03 19:00:00 16.8 0 Calma 12 Sudoeste 0 -- -- 74
2019-10-03 18:00:00 18.3 0 Calma 15 Sudoeste 0 -- -- 64
2019-10-03 17:00:00 19.5 4 Sudeste 19 Sur 0 -- -- 51
2019-10-03 16:00:00 19.5 4 Sudeste 24 Sudoeste 0 -- -- 60
2019-10-03 15:00:00 20.3 5 Sudeste 15 Sur 0 -- -- 56
2019-10-03 14:00:00 20.1 4 Sur 19 Sudoeste 0 -- -- 64
2019-10-03 13:00:00 20.2 3 Sur 20 Sudeste 0 -- -- 66
2019-10-03 12:00:00 20.3 4 Sudeste 12 Este 0 -- -- 64
2019-10-03 11:00:00 19.2 0 Calma 8 Norte 0 -- -- 74
2019-10-03 10:00:00 17.6 0 Calma -- -- 0 -- -- 85
2019-10-03 09:00:00 15.7 0 Calma 4 Nordeste 0 -- -- 89
2019-10-03 08:00:00 14.8 0 Calma 16 Sur 0.7 -- -- 89
2019-10-03 07:00:00 14.4 0 Calma 10 Noroeste 0.1 -- -- 89
2019-10-03 06:00:00 14.3 0 Calma 12 Sur 0 -- -- 89
2019-10-03 05:00:00 13.8 0 Calma 10 Sur 0 -- -- 90
2019-10-03 04:00:00 13.9 0 Calma 10 Sudeste 0 -- -- 90
2019-10-03 03:00:00 14.3 0 Calma 12 Sudeste 0 -- -- 90
2019-10-03 02:00:00 13.8 2 Sudeste 8 Sur 0 -- -- 90
2019-10-03 01:00:00 14.1 4 Este 10 Nordeste 0 -- -- 90
2019-10-03 00:00:00 11.9 0 Calma 8 Sudeste 0 -- -- 89
2019-10-02 23:00:00 12 0 Calma -- -- 0 -- -- 89
2019-10-02 22:00:00 12.4 0 Calma 3 Sudeste 0 -- -- 89
2019-10-02 21:00:00 13.4 0 Calma 5 Sudeste 0 -- -- 88
2019-10-02 20:00:00 14.7 0 Calma 4 Sudoeste 0 -- -- 88
2019-10-02 19:00:00 15.9 0 Calma 8 Sudoeste 0 -- -- 85
2019-10-02 18:00:00 16.9 0 Calma 9 Sudoeste 0 -- -- 80
2019-10-02 17:00:00 17.7 3 Sudeste 12 Sudeste 0 -- -- 76
2019-10-02 16:00:00 17.8 3 Sur 19 Sudoeste 0 -- -- 78
2019-10-02 15:00:00 18 3 Sudoeste 16 Sudeste 0 -- -- 82
2019-10-02 14:00:00 17 6 Sudeste 14 Sudeste 1.4 -- -- 89
2019-10-02 13:00:00 16.3 4 Sur 14 Sur 5.7 -- -- 88
2019-10-02 12:00:00 16.9 3 Este 19 Sudeste 0.7 -- -- 78
2019-10-02 11:00:00 18 7 Sudeste 22 Sudoeste 0 -- -- 67
2019-10-02 10:00:00 18.1 5 Sur 22 Sudoeste 0 -- -- 67
2019-10-02 09:00:00 17.8 6 Sudeste 22 Sudoeste 0 -- -- 71
2019-10-02 08:00:00 17.2 6 Sudeste 21 Sudeste 0 -- -- 76
2019-10-02 07:00:00 17.5 2 Sur 14 Sur 0 -- -- 78
2019-10-02 06:00:00 17.7 3 Este 21 Este 0 -- -- 78
2019-10-02 05:00:00 17.7 0 Calma 23 Este 0 -- -- 84
2019-10-02 04:00:00 18.8 2 Nordeste 18 Sur 0 -- -- 86
2019-10-02 03:00:00 18.5 0 Calma 12 Este 0 -- -- 89
2019-10-02 02:00:00 16.6 0 Calma 8 Sudeste 0 -- -- 89
2019-10-02 01:00:00 13.7 0 Calma 6 Sur 0 -- -- 87
2019-10-02 00:00:00 14.9 0 Calma -- -- 0 -- -- 87
2019-10-01 23:00:00 15.7 0 Calma -- -- 0 -- -- 86
2019-10-01 22:00:00 16.6 0 Calma -- -- 0 -- -- 83
2019-10-01 21:00:00 18.2 0 Calma 3 Sudoeste 0 -- -- 81
2019-10-01 20:00:00 20.1 0 Calma 12 Sudeste 0 -- -- 75
2019-10-01 19:00:00 21.9 3 Sudeste 10 Sur 0 -- -- 71
2019-10-01 18:00:00 23.6 3 Sudeste 13 Sudeste 0 -- -- 61
2019-10-01 17:00:00 24.2 4 Sudeste 15 Sudeste 0 -- -- 57
2019-10-01 16:00:00 25.1 0 Calma 15 Sudeste 0 -- -- 52
2019-10-01 15:00:00 25.4 4 Este 15 Sudeste 0 -- -- 54
2019-10-01 14:00:00 25.2 5 Sudeste 14 Sudeste 0 -- -- 57
2019-10-01 13:00:00 24.6 0 Calma 18 Sudeste 0 -- -- 61
2019-10-01 12:00:00 25 6 Sudeste 15 Sur 0 -- -- 58
2019-10-01 11:00:00 23.2 3 Sudeste -- -- -- -- -- 57
2019-10-01 10:00:00 18.4 0 Calma 0 Calma 0 -- -- 79
2019-10-01 09:00:00 13 0 Calma -- -- 0 -- -- 89
2019-10-01 08:00:00 11.6 0 Calma -- -- 0 -- -- 89
2019-10-01 07:00:00 11.5 0 Calma -- -- 0 -- -- 89
2019-10-01 06:00:00 11.5 0 Calma -- -- 0 -- -- 89
2019-10-01 05:00:00 11.6 0 Calma -- -- 0 -- -- 89
2019-10-01 04:00:00 11.7 0 Calma -- -- 0 -- -- 87
2019-10-01 03:00:00 12.3 0 Calma -- -- 0 -- -- 87
2019-10-01 02:00:00 13.6 0 Calma 6 Sudoeste 0 -- -- 88
2019-10-01 01:00:00 15.3 0 Calma 0 Calma 0 -- -- 89
2019-10-01 00:00:00 15.6 0 Calma -- -- 0 -- -- 89
2019-09-30 23:00:00 16 0 Calma -- -- 0 -- -- 89
2019-09-30 22:00:00 15.9 0 Calma -- -- 0 -- -- 86
2019-09-30 21:00:00 17.2 0 Calma -- -- 0 -- -- 84
2019-09-30 20:00:00 19.2 0 Calma 6 Sudoeste 0 -- -- 85
2019-09-30 19:00:00 21.2 0 Calma 13 Sur 0 -- -- 80
2019-09-30 18:00:00 23.1 2 Sudoeste 15 Sudeste 0 -- -- 67
2019-09-30 17:00:00 24 3 Noroeste 13 Este 0 -- -- 64
2019-09-30 16:00:00 25.1 2 Sudeste 20 Sudeste 0 -- -- 56
2019-09-30 15:00:00 25.1 6 Sudeste 19 Sudoeste 0 -- -- 50
2019-09-30 14:00:00 24.6 3 Sudeste 19 Sur 0 -- -- 56
2019-09-30 13:00:00 24.1 6 Sudeste 18 Este 0 -- -- 61
2019-09-30 12:00:00 23.7 5 Sudeste 19 Este 0 -- -- 64
2019-09-30 11:00:00 23 4 Sudeste 17 Sudeste 0 -- -- 65
2019-09-30 10:00:00 18 0 Calma -- -- 0 -- -- 77
2019-09-30 09:00:00 12.6 0 Calma -- -- 0 -- -- 89
2019-09-30 08:00:00 10.3 0 Calma -- -- 0 -- -- 90
2019-09-30 07:00:00 10.1 0 Calma -- -- 0 -- -- 89
2019-09-30 06:00:00 10.2 0 Calma -- -- 0 -- -- 89
2019-09-30 05:00:00 10.2 0 Calma -- -- 0 -- -- 89
2019-09-30 04:00:00 10.6 0 Calma -- -- 0 -- -- 88
2019-09-30 03:00:00 11 0 Calma -- -- 0 -- -- 87
2019-09-30 02:00:00 11.6 0 Calma -- -- 0 -- -- 86
2019-09-30 01:00:00 12.1 0 Calma -- -- 0 -- -- 86
2019-09-30 00:00:00 12.7 0 Calma -- -- 0 -- -- 85
2019-09-29 23:00:00 13.6 0 Calma -- -- 0 -- -- 85
2019-09-29 22:00:00 15 0 Calma -- -- 0 -- -- 84
2019-09-29 21:00:00 16.9 0 Calma -- -- 0 -- -- 82
2019-09-29 20:00:00 19.2 0 Calma -- -- 0 -- -- 84
2019-09-29 19:00:00 21 0 Calma 0 Calma 0 -- -- 80
2019-09-29 18:00:00 22.8 0 Calma 9 Sudoeste 0 -- -- 73
2019-09-29 17:00:00 23.3 0 Calma 10 Nordeste 0 -- -- 71
2019-09-29 16:00:00 23.5 0 Calma 7 Norte 0 -- -- 66
2019-09-29 15:00:00 24.5 0 Calma 11 Sudoeste 0 -- -- 56
2019-09-29 14:00:00 25.8 4 Este 12 Este 0 -- -- 50
2019-09-29 13:00:00 25.5 5 Este 13 Este 0 -- -- 56
2019-09-29 12:00:00 25 3 Sudeste 10 Sur 0 -- -- 56
2019-09-29 11:00:00 23.4 0 Calma -- -- 0 -- -- 48
2019-09-29 10:00:00 18.7 0 Calma -- -- 0 -- -- 80
2019-09-29 09:00:00 13.5 0 Calma -- -- 0 -- -- 89
2019-09-29 08:00:00 11.3 0 Calma -- -- 0 -- -- 89
2019-09-29 07:00:00 11.7 0 Calma -- -- 0 -- -- 89
2019-09-29 06:00:00 12.1 0 Calma -- -- 0 -- -- 89
2019-09-29 05:00:00 12.6 0 Calma -- -- 0 -- -- 89
2019-09-29 04:00:00 13.3 0 Calma -- -- 0 -- -- 89
2019-09-29 03:00:00 13.9 0 Calma -- -- 0 -- -- 89
2019-09-29 02:00:00 14.5 0 Calma -- -- 0 -- -- 89
2019-09-29 01:00:00 14.9 0 Calma -- -- 0 -- -- 89
2019-09-29 00:00:00 15.4 0 Calma -- -- 0 -- -- 89
2019-09-28 23:00:00 15.9 0 Calma -- -- 0 -- -- 88
2019-09-28 22:00:00 17.1 0 Calma -- -- 0 -- -- 86
2019-09-28 21:00:00 18.5 0 Calma -- -- 0 -- -- 84
2019-09-28 20:00:00 19.8 0 Calma -- -- 0 -- -- 78
2019-09-28 19:00:00 21.3 0 Calma 9 Oeste 0 -- -- 71
2019-09-28 18:00:00 22.1 3 Sudoeste 13 Sudoeste 0 -- -- 68
2019-09-28 17:00:00 22.7 0 Calma 10 Sudoeste 0 -- -- 68
2019-09-28 16:00:00 22.9 0 Calma 11 Sur 0 -- -- 65
2019-09-28 15:00:00 23.4 0 Calma 17 Nordeste 0 -- -- 60
2019-09-28 14:00:00 24.2 4 Este 15 Sudoeste 0 -- -- 57
2019-09-28 13:00:00 24.2 5 Sudeste 18 Sudoeste 0 -- -- 57
2019-09-28 12:00:00 24.2 4 Sudeste 15 Este 0 -- -- 58
2019-09-28 11:00:00 23 3 Sur 12 Sur 0 -- -- 65
2019-09-28 10:00:00 20.9 0 Calma 11 Sudeste 0 -- -- 78
2019-09-28 09:00:00 15 0 Calma -- -- 0 -- -- 90
2019-09-28 08:00:00 12.9 0 Calma -- -- 0 -- -- 90
2019-09-28 07:00:00 13 0 Calma -- -- 0 -- -- 90
2019-09-28 06:00:00 13 0 Calma -- -- 0 -- -- 89
2019-09-28 05:00:00 12.8 0 Calma -- -- 0 -- -- 89
2019-09-28 04:00:00 12.9 0 Calma -- -- 0 -- -- 88
2019-09-28 03:00:00 13.3 0 Calma -- -- 0 -- -- 88
2019-09-28 02:00:00 14 0 Calma -- -- 0 -- -- 88
2019-09-28 01:00:00 14.8 0 Calma -- -- 0 -- -- 88
2019-09-28 00:00:00 15.6 0 Calma 5 Sudeste 0 -- -- 87
2019-09-27 23:00:00 16.3 0 Calma 8 Este 0 -- -- 86
2019-09-27 22:00:00 16.9 0 Calma -- -- 0 -- -- 85
2019-09-27 21:00:00 17.8 0 Calma -- -- 0 -- -- 82
2019-09-27 20:00:00 19.4 0 Calma 12 Sudeste 0 -- -- 75
2019-09-27 19:00:00 20.7 0 Calma 14 Sudeste 0 -- -- 71
2019-09-27 18:00:00 22.5 0 Calma 10 Sur 0 -- -- 57
2019-09-27 17:00:00 24 3 Este 12 Oeste 0 -- -- 52
2019-09-27 16:00:00 24.3 5 Este 17 Sudeste 0 -- -- 50
2019-09-27 15:00:00 24.8 5 Este 17 Sudeste 0 -- -- 48
2019-09-27 14:00:00 24.5 5 Sudeste 17 Este 0 -- -- 50
2019-09-27 13:00:00 24.1 5 Sudeste 17 Este 0 -- -- 55
2019-09-27 12:00:00 24.8 4 Sudeste 13 Sur 0 -- -- 56
2019-09-27 11:00:00 23 4 Este 12 Este 0 -- -- 56
2019-09-27 10:00:00 19.8 0 Calma -- -- 0 -- -- 74
2019-09-27 09:00:00 14.7 0 Calma -- -- 0 -- -- 90
2019-09-27 08:00:00 12.4 0 Calma -- -- 0 -- -- 89
2019-09-27 07:00:00 12.5 0 Calma -- -- 0 -- -- 90
2019-09-27 06:00:00 12.8 0 Calma -- -- 0 -- -- 90
2019-09-27 05:00:00 12.9 0 Calma -- -- 0 -- -- 89
2019-09-27 04:00:00 13.2 0 Calma -- -- 0 -- -- 89
2019-09-27 03:00:00 13.7 0 Calma -- -- 0 -- -- 88
2019-09-27 02:00:00 14.1 0 Calma -- -- 0 -- -- 87
2019-09-27 01:00:00 14.9 0 Calma -- -- 0 -- -- 87
2019-09-27 00:00:00 15.9 0 Calma -- -- 0 -- -- 85
2019-09-26 23:00:00 17.2 0 Calma 13 Sudeste 0 -- -- 84
2019-09-26 22:00:00 17.5 0 Calma 5 Este 0 -- -- 84
2019-09-26 21:00:00 18 0 Calma 8 Sur 0 -- -- 81
2019-09-26 20:00:00 18.9 0 Calma 4 Sur 0 -- -- 76
2019-09-26 19:00:00 20.9 0 Calma 11 Sur 0 -- -- 69
2019-09-26 18:00:00 21.5 0 Calma 12 Sudeste 0 -- -- 61
2019-09-26 17:00:00 22.6 2 Sur 10 Sur 0 -- -- 60
2019-09-26 16:00:00 22.7 0 Calma 11 Sudeste 0 -- -- 55
2019-09-26 15:00:00 22.4 2 Sur 12 Sudoeste 0 -- -- 50
2019-09-26 14:00:00 23.7 3 Sudeste 13 Sur 0 -- -- 43
2019-09-26 13:00:00 23.6 2 Sudeste 15 Oeste 0 -- -- 43
2019-09-26 12:00:00 23.6 0 Calma 6 Noroeste 0 -- -- 44
2019-09-26 11:00:00 21.5 0 Calma -- -- 0 -- -- 51
2019-09-26 10:00:00 18.5 0 Calma -- -- 0 -- -- 77
2019-09-26 09:00:00 14.3 0 Calma -- -- 0 -- -- 89
2019-09-26 08:00:00 12 0 Calma -- -- 0 -- -- 89
2019-09-26 07:00:00 12.3 0 Calma -- -- 0 -- -- 89
2019-09-26 06:00:00 12.6 0 Calma -- -- 0 -- -- 89
2019-09-26 05:00:00 12.9 0 Calma -- -- 0 -- -- 89
2019-09-26 04:00:00 13.4 0 Calma -- -- 0 -- -- 89
2019-09-26 03:00:00 13.9 0 Calma -- -- 0 -- -- 90
2019-09-26 02:00:00 14.4 0 Calma -- -- 0 -- -- 89
2019-09-26 01:00:00 14.5 0 Calma -- -- 0 -- -- 89
2019-09-26 00:00:00 14.4 0 Calma -- -- 0 -- -- 89
2019-09-25 23:00:00 14.7 0 Calma -- -- 0 -- -- 88
2019-09-25 22:00:00 15.6 0 Calma -- -- 0 -- -- 87
2019-09-25 21:00:00 16.5 0 Calma -- -- 0 -- -- 84
2019-09-25 20:00:00 18.1 0 Calma -- -- 0 -- -- 84
2019-09-25 19:00:00 19.5 0 Calma 9 Sudoeste 0 -- -- 79
2019-09-25 18:00:00 -- -- -- -- -- -- -- -- --
2019-09-25 17:00:00 20.4 0 Calma 20 Este 0 -- -- 74
2019-09-25 16:00:00 20.8 0 Calma 27 Este 0 -- -- 74
2019-09-25 15:00:00 21.4 4 Nordeste 25 Este 0 -- -- 73
2019-09-25 14:00:00 22.2 5 Nordeste 21 Este 0 -- -- 67
2019-09-25 13:00:00 23 4 Nordeste 19 Este 0 -- -- 65
2019-09-25 12:00:00 23.6 2 Sudoeste 15 Este 0 -- -- 58
2019-09-25 11:00:00 23.3 0 Calma 11 Este 0 -- -- 52
2019-09-25 10:00:00 19.7 0 Calma -- -- 0 -- -- 71
2019-09-25 09:00:00 13.9 0 Calma -- -- 0 -- -- 86
2019-09-25 08:00:00 11.5 0 Calma -- -- 0 -- -- 89
2019-09-25 07:00:00 11.4 0 Calma -- -- 0 -- -- 88
2019-09-25 06:00:00 11.6 0 Calma -- -- 0 -- -- 88
2019-09-25 05:00:00 11.9 0 Calma -- -- 0 -- -- 88
2019-09-25 04:00:00 12 0 Calma -- -- 0 -- -- 86
2019-09-25 03:00:00 12.3 0 Calma 4 Sudeste 0 -- -- 85
2019-09-25 02:00:00 12.5 0 Calma -- -- 0 -- -- 84
2019-09-25 01:00:00 13 0 Calma -- -- 0 -- -- 84
2019-09-25 00:00:00 13.3 0 Calma -- -- 0 -- -- 82
2019-09-24 23:00:00 14 0 Calma -- -- 0 -- -- 79
2019-09-24 22:00:00 15.2 0 Calma -- -- 0 -- -- 80
2019-09-24 21:00:00 17.2 0 Calma 7 Sur 0 -- -- 79
2019-09-24 20:00:00 19.1 0 Calma 5 Sudeste 0 -- -- 79
2019-09-24 19:00:00 21.3 0 Calma 11 Sudoeste 0 -- -- 73
2019-09-24 18:00:00 23.1 0 Calma 9 Sur 0 -- -- 60
2019-09-24 17:00:00 24.1 0 Calma 9 Sudoeste 0 -- -- 49
2019-09-24 16:00:00 25.3 0 Calma 14 Sudeste 0 -- -- 47
2019-09-24 15:00:00 25.4 3 Sur 14 Sudoeste 0 -- -- 48
2019-09-24 14:00:00 26.6 0 Calma 10 Sudoeste 0 -- -- 49
2019-09-24 13:00:00 26.5 2 Noroeste 9 Noroeste 0 -- -- 38
2019-09-24 12:00:00 26.1 2 Sudoeste 10 Sur 0 -- -- 39
2019-09-24 11:00:00 24.4 0 Calma -- -- 0 -- -- 44
2019-09-24 10:00:00 20 0 Calma -- -- 0 -- -- 71
2019-09-24 09:00:00 14.3 0 Calma -- -- 0 -- -- 89
2019-09-24 08:00:00 11.5 0 Calma -- -- 0 -- -- 89
2019-09-24 07:00:00 11.5 0 Calma -- -- 0 -- -- 89
2019-09-24 06:00:00 11.4 0 Calma -- -- 0 -- -- 89
2019-09-24 05:00:00 11.5 0 Calma -- -- 0 -- -- 88
2019-09-24 04:00:00 11.8 0 Calma -- -- 0 -- -- 87
2019-09-24 03:00:00 12.2 0 Calma -- -- 0 -- -- 86
2019-09-24 02:00:00 12.7 0 Calma -- -- 0 -- -- 86
2019-09-24 01:00:00 13.4 0 Calma -- -- 0 -- -- 86
2019-09-24 00:00:00 14.2 0 Calma -- -- 0 -- -- 86
2019-09-23 23:00:00 15.3 0 Calma -- -- 0 -- -- 85
2019-09-23 22:00:00 16.2 0 Calma 4 Sur 0 -- -- 82
2019-09-23 21:00:00 17.2 0 Calma 5 Sudeste 0 -- -- 83
2019-09-23 20:00:00 18.4 0 Calma 6 Sudoeste 0 -- -- 79
2019-09-23 19:00:00 20 0 Calma 7 Sudeste 0 -- -- 72
2019-09-23 18:00:00 20.7 0 Calma 10 Sudeste 0 -- -- 69
2019-09-23 17:00:00 20.6 0 Calma 8 Sudeste 0 -- -- 67
2019-09-23 16:00:00 20.8 2 Sudeste 14 Sudeste 0 -- -- 65
2019-09-23 15:00:00 20.9 2 Este 10 Sudeste 0 -- -- 63
2019-09-23 14:00:00 21 3 Sudeste 15 Sudeste 0 -- -- 62
2019-09-23 13:00:00 21.7 6 Este 18 Este 0 -- -- 61
2019-09-23 12:00:00 22.1 6 Sur 18 Sur 0 -- -- 56
2019-09-23 11:00:00 20.6 8 Sudeste 18 Sur 0 -- -- 57
2019-09-23 10:00:00 19.7 3 Sudoeste 12 Este 0 -- -- 71
2019-09-23 09:00:00 17.5 0 Calma 9 Este 0 -- -- 86
2019-09-23 08:00:00 17.3 0 Calma 9 Oeste 0 -- -- 89
2019-09-23 07:00:00 17.6 5 Nordeste 16 Nordeste 0 -- -- 89
2019-09-23 06:00:00 17.5 0 Calma 6 Nordeste 0 -- -- 89
2019-09-23 05:00:00 16.4 0 Calma 7 Sudeste 0 -- -- 89
2019-09-23 04:00:00 16 0 Calma 5 Sudeste 0 -- -- 89
2019-09-23 03:00:00 16.3 0 Calma 0 Calma 0 -- -- 89
2019-09-23 02:00:00 16.7 0 Calma 10 Este 0 -- -- 89
2019-09-23 01:00:00 16.3 0 Calma 6 Este 0 -- -- 89
2019-09-23 00:00:00 16.9 0 Calma 8 Este 0 -- -- 89
2019-09-22 23:00:00 17.5 0 Calma -- -- 0 -- -- 88
2019-09-22 22:00:00 18.1 0 Calma -- -- 0 -- -- 87
2019-09-22 21:00:00 18.8 0 Calma -- -- 0 -- -- 86
2019-09-22 20:00:00 20.2 0 Calma -- -- 0 -- -- 81
2019-09-22 19:00:00 21.8 0 Calma 7 Sudoeste 0 -- -- 79
2019-09-22 18:00:00 21.9 0 Calma -- -- 0 -- -- 71
2019-09-22 17:00:00 22.7 0 Calma 8 Sur 0 -- -- 67
2019-09-22 16:00:00 23.9 0 Calma 8 Oeste 0 -- -- 63
2019-09-22 15:00:00 23.9 0 Calma 15 Sur 0 -- -- 66
2019-09-22 14:00:00 25.4 3 Sur 12 Sudoeste 0 -- -- 59
2019-09-22 13:00:00 24.9 0 Calma 9 Este 0 -- -- 58
2019-09-22 12:00:00 24.6 0 Calma 9 Sudeste 0 -- -- 61
2019-09-22 11:00:00 24.6 0 Calma 8 Este 0 -- -- 56
2019-09-22 10:00:00 20.4 0 Calma -- -- 0 -- -- 84
2019-09-22 09:00:00 17.4 0 Calma 7 Este 0 -- -- 89
2019-09-22 08:00:00 16.2 0 Calma -- -- 0 -- -- 89
2019-09-22 07:00:00 16.2 0 Calma 5 Sur 0 -- -- 89
2019-09-22 06:00:00 17 0 Calma -- -- 0 -- -- 88
2019-09-22 05:00:00 17.6 0 Calma -- -- 0 -- -- 88
2019-09-22 04:00:00 18 0 Calma 7 Sudeste 0 -- -- 89
2019-09-22 03:00:00 18.2 0 Calma 8 Sur 0 -- -- 89
2019-09-22 02:00:00 17.9 0 Calma -- -- 0 -- -- 89
2019-09-22 01:00:00 18.7 0 Calma -- -- 0 -- -- 89
2019-09-22 00:00:00 18.9 0 Calma -- -- 0 -- -- 89